Main page
METAR-TAF:

METAR-TAF

Airports :

Gibraltar International Airport

Gibraltar, Gibraltar

latitude: 36-09N, longitude: 005-21W, elevation: 5 m

Current weather observation

The report was made 30 minutes ago, at 20:50 UTC
Wind 25 kt from the East
Temperature 14°C
Humidity 67%
Pressure 1023 hPa
Visibility 10 km or more

METAR: LXGB 212050Z AUTO 09025KT 9999 BKN026/// 14/08 Q1023

Time: 22:20 (21:20 UTC)

Forecast

The report was made 4 hours and 54 minutes ago, at 16:26 UTC
Forecast valid from 21 at 18 UTC to 21 at 23 UTC
Wind 14 kt from the East
Visibility 10 km or more
Few clouds at a height of 2500 ft
Broken clouds at a height of 4000 ft
Becoming
from 21 at 18 UTC to 21 at 21 UTC
Wind 15 kt from the East with gusts up to 25 kt
Probability 30% :
Temporary
from 21 at 18 UTC to 21 at 23 UTC
Scattered clouds at a height of 2000 ft

TAF: LXGB 211626Z 2118/2123 09014KT 9999 FEW025 BKN040 BECMG 2118/2121 09015G25KT PROB30 TEMPO 2118/2123 SCT020

Weather observations and forecasts of more than 4000 airports (METAR and TAF reports).

The available stations are represented by yellow and red dots on the map.

Hover mouse over dot to see the name of the station.

Then click to see weather observations and forecasts.

To change the map : click on the green buttons with a black cross to zoom in, on the green button with a dash to zoom out, or on the green arrows for adjacent maps.


METAR-TAF: